Time;durP1;ratioP1;P1;durP2;ratioP2;P2;SDS_P1;SDS_P2;PMS_P1;PMS_P2;Temp;Humidity;BMP_temperature;BMP_pressure;BME280_temperature;BME280_humidity;BME280_pressure;Samples;Min_cycle;Max_cycle;Signal;HPM_P1;HPM_P2
2022/11/01 00:00:00;;;;;;;0.9;0.9;;;;;;;15.6;100.0;100650;;;;
2022/11/01 00:01:00;;;;;;;0.9;0.9;;;;;;;15.6;100.0;100650;;;;
2022/11/01 00:02:00;;;;;;;0.9;0.9;;;;;;;15.6;100.0;100650;;;;
2022/11/01 00:03:00;;;;;;;0.9;0.9;;;;;;;15.6;100.0;100650;;;;
2022/11/01 00:04:00;;;;;;;0.9;0.9;;;;;;;15.5;100.0;100650;;;;
2022/11/01 00:05:00;;;;;;;0.9;0.9;;;;;;;15.5;100.0;100650;;;;
2022/11/01 00:06:00;;;;;;;0.9;0.9;;;;;;;15.7;100.0;100650;;;;
2022/11/01 00:07:00;;;;;;;0.9;0.9;;;;;;;15.7;100.0;100650;;;;
2022/11/01 00:08:01;;;;;;;0.9;0.9;;;;;;;15.7;100.0;100640;;;;
2022/11/01 00:09:00;;;;;;;0.9;0.9;;;;;;;15.7;100.0;100640;;;;
2022/11/01 00:10:00;;;;;;;0.9;0.9;;;;;;;15.6;100.0;100640;;;;
2022/11/01 00:11:01;;;;;;;0.4;0.4;;;;;;;15.6;100.0;100640;;;;
2022/11/01 00:12:00;;;;;;;0.4;0.4;;;;;;;15.6;100.0;100620;;;;
2022/11/01 00:13:00;;;;;;;0.4;0.4;;;;;;;15.6;100.0;100620;;;;
2022/11/01 00:14:00;;;;;;;0.4;0.4;;;;;;;15.6;100.0;100630;;;;
2022/11/01 00:15:00;;;;;;;0.4;0.4;;;;;;;15.6;100.0;100630;;;;
2022/11/01 00:16:00;;;;;;;0.4;0.4;;;;;;;15.6;100.0;100620;;;;
2022/11/01 00:17:00;;;;;;;0.4;0.4;;;;;;;15.6;100.0;100620;;;;
2022/11/01 00:18:00;;;;;;;0.4;0.4;;;;;;;15.7;100.0;100620;;;;
2022/11/01 00:19:00;;;;;;;0.4;0.4;;;;;;;15.7;100.0;100620;;;;
2022/11/01 00:20:00;;;;;;;0.4;0.4;;;;;;;15.7;100.0;100620;;;;
2022/11/01 00:21:00;;;;;;;0.4;0.4;;;;;;;15.7;100.0;100620;;;;
2022/11/01 00:22:01;;;;;;;0.4;0.4;;;;;;;15.7;100.0;100630;;;;
2022/11/01 00:23:00;;;;;;;0.4;0.4;;;;;;;15.7;100.0;100630;;;;
2022/11/01 00:24:00;;;;;;;0.4;0.4;;;;;;;15.8;100.0;100630;;;;
2022/11/01 00:25:00;;;;;;;0.4;0.4;;;;;;;15.8;100.0;100630;;;;
2022/11/01 00:26:00;;;;;;;0.4;0.4;;;;;;;15.9;100.0;100620;;;;
2022/11/01 00:27:00;;;;;;;0.4;0.4;;;;;;;15.9;100.0;100620;;;;
2022/11/01 00:28:00;;;;;;;0.4;0.4;;;;;;;15.8;100.0;100620;;;;
2022/11/01 00:29:00;;;;;;;0.4;0.4;;;;;;;15.8;100.0;100620;;;;
2022/11/01 00:30:00;;;;;;;0.4;0.4;;;;;;;15.8;100.0;100620;;;;
2022/11/01 00:31:00;;;;;;;0.5;0.5;;;;;;;15.8;100.0;100620;;;;
2022/11/01 00:32:00;;;;;;;0.5;0.5;;;;;;;15.9;100.0;100610;;;;
2022/11/01 00:33:00;;;;;;;0.5;0.5;;;;;;;15.9;100.0;100610;;;;
2022/11/01 00:34:02;;;;;;;0.5;0.5;;;;;;;15.8;100.0;100610;;;;
2022/11/01 00:35:00;;;;;;;0.5;0.5;;;;;;;15.8;100.0;100610;;;;
2022/11/01 00:36:00;;;;;;;0.5;0.5;;;;;;;15.8;100.0;100610;;;;
2022/11/01 00:37:00;;;;;;;0.5;0.5;;;;;;;15.8;100.0;100610;;;;
2022/11/01 00:38:01;;;;;;;0.5;0.5;;;;;;;15.8;100.0;100610;;;;
2022/11/01 00:39:00;;;;;;;0.5;0.5;;;;;;;15.8;100.0;100610;;;;
2022/11/01 00:40:00;;;;;;;0.5;0.5;;;;;;;15.7;100.0;100600;;;;
2022/11/01 00:41:02;;;;;;;0.5;0.5;;;;;;;15.7;100.0;100600;;;;
2022/11/01 00:42:00;;;;;;;0.5;0.5;;;;;;;15.8;100.0;100600;;;;
2022/11/01 00:43:00;;;;;;;0.5;0.5;;;;;;;15.8;100.0;100600;;;;
2022/11/01 00:44:00;;;;;;;0.5;0.5;;;;;;;15.8;100.0;100590;;;;
2022/11/01 00:45:00;;;;;;;0.5;0.5;;;;;;;15.8;100.0;100590;;;;
2022/11/01 00:46:00;;;;;;;0.5;0.5;;;;;;;16.0;100.0;100600;;;;
2022/11/01 00:47:00;;;;;;;0.5;0.5;;;;;;;16.0;100.0;100600;;;;
2022/11/01 00:48:00;;;;;;;0.5;0.5;;;;;;;15.9;100.0;100590;;;;
2022/11/01 00:49:00;;;;;;;0.5;0.5;;;;;;;15.9;100.0;100590;;;;
2022/11/01 00:50:00;;;;;;;0.5;0.5;;;;;;;16.0;100.0;100590;;;;
2022/11/01 00:51:00;;;;;;;0.4;0.4;;;;;;;16.0;100.0;100590;;;;
2022/11/01 00:52:00;;;;;;;0.4;0.4;;;;;;;16.0;100.0;100590;;;;
2022/11/01 00:53:00;;;;;;;0.4;0.4;;;;;;;16.0;100.0;100590;;;;
2022/11/01 00:54:00;;;;;;;0.4;0.4;;;;;;;16.0;100.0;100600;;;;
2022/11/01 00:55:00;;;;;;;0.4;0.4;;;;;;;16.0;100.0;100600;;;;
2022/11/01 00:56:01;;;;;;;0.4;0.4;;;;;;;15.9;100.0;100600;;;;
2022/11/01 00:57:00;;;;;;;0.4;0.4;;;;;;;15.9;100.0;100600;;;;
2022/11/01 00:58:00;;;;;;;0.4;0.4;;;;;;;16.0;100.0;100600;;;;
2022/11/01 00:59:00;;;;;;;0.4;0.4;;;;;;;16.0;100.0;100600;;;;
2022/11/01 01:00:00;;;;;;;0.4;0.4;;;;;;;16.0;100.0;100600;;;;
2022/11/01 01:01:00;;;;;;;0.4;0.4;;;;;;;16.0;100.0;100600;;;;
2022/11/01 01:02:00;;;;;;;0.4;0.4;;;;;;;16.1;100.0;100600;;;;
2022/11/01 01:03:00;;;;;;;0.4;0.4;;;;;;;16.1;100.0;100600;;;;
2022/11/01 01:04:00;;;;;;;0.4;0.4;;;;;;;16.0;100.0;100590;;;;
2022/11/01 01:05:00;;;;;;;0.4;0.4;;;;;;;16.0;100.0;100590;;;;
2022/11/01 01:06:00;;;;;;;0.4;0.4;;;;;;;16.0;100.0;100590;;;;
2022/11/01 01:07:00;;;;;;;0.4;0.4;;;;;;;16.0;100.0;100590;;;;
2022/11/01 01:08:00;;;;;;;0.4;0.4;;;;;;;15.9;100.0;100590;;;;
2022/11/01 01:09:00;;;;;;;0.4;0.4;;;;;;;15.9;100.0;100590;;;;
2022/11/01 01:10:00;;;;;;;0.4;0.4;;;;;;;15.8;100.0;100590;;;;
2022/11/01 01:11:00;;;;;;;0.5;0.5;;;;;;;15.8;100.0;100590;;;;
2022/11/01 01:12:00;;;;;;;0.5;0.5;;;;;;;15.8;100.0;100580;;;;
2022/11/01 01:13:00;;;;;;;0.5;0.5;;;;;;;15.8;100.0;100580;;;;
2022/11/01 01:14:00;;;;;;;0.5;0.5;;;;;;;15.9;100.0;100580;;;;
2022/11/01 01:15:00;;;;;;;0.5;0.5;;;;;;;15.9;100.0;100580;;;;
2022/11/01 01:16:00;;;;;;;0.5;0.5;;;;;;;15.8;100.0;100580;;;;
2022/11/01 01:17:00;;;;;;;0.5;0.5;;;;;;;15.8;100.0;100580;;;;
2022/11/01 01:18:01;;;;;;;0.5;0.5;;;;;;;15.9;100.0;100570;;;;
2022/11/01 01:19:00;;;;;;;0.5;0.5;;;;;;;15.9;100.0;100570;;;;
2022/11/01 01:20:00;;;;;;;0.5;0.5;;;;;;;15.9;100.0;100580;;;;
2022/11/01 01:21:01;;;;;;;0.5;0.5;;;;;;;15.9;100.0;100580;;;;
2022/11/01 01:22:00;;;;;;;0.5;0.5;;;;;;;15.8;100.0;100580;;;;
2022/11/01 01:23:00;;;;;;;0.5;0.5;;;;;;;15.8;100.0;100580;;;;
2022/11/01 01:24:00;;;;;;;0.5;0.5;;;;;;;15.9;100.0;100570;;;;
2022/11/01 01:25:00;;;;;;;0.5;0.5;;;;;;;15.9;100.0;100570;;;;
2022/11/01 01:26:03;;;;;;;0.5;0.5;;;;;;;15.8;100.0;100570;;;;
2022/11/01 01:27:00;;;;;;;0.5;0.5;;;;;;;15.8;100.0;100570;;;;
2022/11/01 01:28:00;;;;;;;0.5;0.5;;;;;;;15.9;100.0;100570;;;;
2022/11/01 01:29:00;;;;;;;0.5;0.5;;;;;;;15.9;100.0;100570;;;;
2022/11/01 01:30:00;;;;;;;0.5;0.5;;;;;;;15.9;100.0;100560;;;;
2022/11/01 01:31:04;;;;;;;0.7;0.7;;;;;;;15.9;100.0;100560;;;;
2022/11/01 01:32:00;;;;;;;0.7;0.7;;;;;;;15.9;100.0;100570;;;;
2022/11/01 01:33:00;;;;;;;0.7;0.7;;;;;;;15.9;100.0;100570;;;;
2022/11/01 01:34:00;;;;;;;0.7;0.7;;;;;;;16.0;100.0;100560;;;;
2022/11/01 01:35:00;;;;;;;0.7;0.7;;;;;;;16.0;100.0;100560;;;;
2022/11/01 01:36:00;;;;;;;0.7;0.7;;;;;;;16.0;100.0;100560;;;;
2022/11/01 01:37:00;;;;;;;0.7;0.7;;;;;;;16.0;100.0;100560;;;;
2022/11/01 01:38:00;;;;;;;0.7;0.7;;;;;;;16.0;100.0;100570;;;;
2022/11/01 01:39:00;;;;;;;0.7;0.7;;;;;;;16.0;100.0;100570;;;;
2022/11/01 01:40:00;;;;;;;0.7;0.7;;;;;;;16.1;100.0;100570;;;;
2022/11/01 01:41:54;;;;;;;0.7;0.7;;;;;;;16.1;100.0;100570;;;;
2022/11/01 01:42:02;;;;;;;0.7;0.7;;;;;;;16.2;100.0;100560;;;;
2022/11/01 01:43:00;;;;;;;0.7;0.7;;;;;;;16.2;100.0;100560;;;;
2022/11/01 01:44:00;;;;;;;0.7;0.7;;;;;;;16.1;100.0;100570;;;;
2022/11/01 01:45:10;;;;;;;0.7;0.7;;;;;;;16.1;100.0;100570;;;;
2022/11/01 01:46:00;;;;;;;0.7;0.7;;;;;;;16.3;100.0;100570;;;;
2022/11/01 01:47:00;;;;;;;0.7;0.7;;;;;;;16.3;100.0;100570;;;;
2022/11/01 01:48:07;;;;;;;0.7;0.7;;;;;;;16.3;100.0;100570;;;;
2022/11/01 01:49:00;;;;;;;0.7;0.7;;;;;;;16.3;100.0;100570;;;;
2022/11/01 01:50:00;;;;;;;0.7;0.7;;;;;;;16.3;100.0;100570;;;;
2022/11/01 01:51:02;;;;;;;0.4;0.4;;;;;;;16.3;100.0;100570;;;;
2022/11/01 01:52:00;;;;;;;0.4;0.4;;;;;;;16.3;100.0;100570;;;;
2022/11/01 01:53:04;;;;;;;0.4;0.4;;;;;;;16.3;100.0;100570;;;;
2022/11/01 01:54:00;;;;;;;0.4;0.4;;;;;;;16.3;100.0;100560;;;;
2022/11/01 01:55:03;;;;;;;0.4;0.4;;;;;;;16.3;100.0;100560;;;;
2022/11/01 01:56:05;;;;;;;0.4;0.4;;;;;;;16.4;100.0;100570;;;;
2022/11/01 01:57:00;;;;;;;0.4;0.4;;;;;;;16.4;100.0;100570;;;;
2022/11/01 01:58:00;;;;;;;0.4;0.4;;;;;;;16.4;100.0;100570;;;;
2022/11/01 01:59:02;;;;;;;0.4;0.4;;;;;;;16.4;100.0;100570;;;;
2022/11/01 02:00:00;;;;;;;0.4;0.4;;;;;;;16.5;100.0;100570;;;;
2022/11/01 02:01:00;;;;;;;0.4;0.4;;;;;;;16.5;100.0;100570;;;;
2022/11/01 02:02:00;;;;;;;0.4;0.4;;;;;;;16.5;100.0;100560;;;;
2022/11/01 02:03:00;;;;;;;0.4;0.4;;;;;;;16.5;100.0;100560;;;;
2022/11/01 02:04:01;;;;;;;0.4;0.4;;;;;;;16.6;100.0;100560;;;;
2022/11/01 02:05:02;;;;;;;0.4;0.4;;;;;;;16.6;100.0;100560;;;;
2022/11/01 02:06:06;;;;;;;0.4;0.4;;;;;;;16.6;100.0;100560;;;;
2022/11/01 02:07:00;;;;;;;0.4;0.4;;;;;;;16.6;100.0;100560;;;;
2022/11/01 02:08:00;;;;;;;0.4;0.4;;;;;;;16.6;100.0;100560;;;;
2022/11/01 02:09:02;;;;;;;0.4;0.4;;;;;;;16.6;100.0;100560;;;;
2022/11/01 02:10:00;;;;;;;0.4;0.4;;;;;;;16.6;100.0;100560;;;;
2022/11/01 02:11:01;;;;;;;0.9;0.9;;;;;;;16.6;100.0;100560;;;;
2022/11/01 02:12:00;;;;;;;0.9;0.9;;;;;;;16.6;100.0;100560;;;;
2022/11/01 02:13:00;;;;;;;0.9;0.9;;;;;;;16.6;100.0;100560;;;;
2022/11/01 02:14:00;;;;;;;0.9;0.9;;;;;;;16.6;100.0;100560;;;;
2022/11/01 02:15:00;;;;;;;0.9;0.9;;;;;;;16.6;100.0;100560;;;;
2022/11/01 02:16:10;;;;;;;0.9;0.9;;;;;;;16.6;100.0;100560;;;;
2022/11/01 02:17:11;;;;;;;0.9;0.9;;;;;;;16.6;100.0;100560;;;;
2022/11/01 02:18:08;;;;;;;0.9;0.9;;;;;;;16.7;100.0;100560;;;;
2022/11/01 02:19:09;;;;;;;0.9;0.9;;;;;;;16.7;100.0;100560;;;;
2022/11/01 02:20:10;;;;;;;0.9;0.9;;;;;;;16.6;100.0;100570;;;;
2022/11/01 02:21:10;;;;;;;0.9;0.9;;;;;;;16.6;100.0;100570;;;;
2022/11/01 02:22:10;;;;;;;0.9;0.9;;;;;;;16.7;100.0;100570;;;;
2022/11/01 02:23:10;;;;;;;0.9;0.9;;;;;;;16.7;100.0;100570;;;;
2022/11/01 02:24:10;;;;;;;0.9;0.9;;;;;;;16.8;100.0;100560;;;;
2022/11/01 02:25:03;;;;;;;0.9;0.9;;;;;;;16.8;100.0;100560;;;;
2022/11/01 02:26:07;;;;;;;0.9;0.9;;;;;;;16.8;100.0;100560;;;;
2022/11/01 02:27:10;;;;;;;0.9;0.9;;;;;;;16.8;100.0;100560;;;;
2022/11/01 02:28:10;;;;;;;0.9;0.9;;;;;;;16.8;100.0;100570;;;;
2022/11/01 02:29:05;;;;;;;0.9;0.9;;;;;;;16.8;100.0;100570;;;;
2022/11/01 02:30:09;;;;;;;0.9;0.9;;;;;;;16.9;100.0;100570;;;;
2022/11/01 02:31:10;;;;;;;1.0;1.0;;;;;;;16.9;100.0;100570;;;;
2022/11/01 02:32:10;;;;;;;1.0;1.0;;;;;;;16.9;100.0;100570;;;;
2022/11/01 02:33:04;;;;;;;1.0;1.0;;;;;;;16.9;100.0;100570;;;;
2022/11/01 02:34:10;;;;;;;1.0;1.0;;;;;;;17.0;100.0;100570;;;;
2022/11/01 02:35:03;;;;;;;1.0;1.0;;;;;;;17.0;100.0;100570;;;;
2022/11/01 02:36:04;;;;;;;1.0;1.0;;;;;;;16.9;100.0;100580;;;;
2022/11/01 02:37:07;;;;;;;1.0;1.0;;;;;;;16.9;100.0;100580;;;;
2022/11/01 02:38:05;;;;;;;1.0;1.0;;;;;;;16.8;100.0;100560;;;;
2022/11/01 02:39:06;;;;;;;1.0;1.0;;;;;;;16.8;100.0;100560;;;;
2022/11/01 02:40:04;;;;;;;1.0;1.0;;;;;;;16.9;100.0;100560;;;;
2022/11/01 02:41:10;;;;;;;1.0;1.0;;;;;;;16.9;100.0;100560;;;;
2022/11/01 02:42:04;;;;;;;1.0;1.0;;;;;;;16.8;100.0;100570;;;;
2022/11/01 02:43:03;;;;;;;1.0;1.0;;;;;;;16.8;100.0;100570;;;;
2022/11/01 02:44:02;;;;;;;1.0;1.0;;;;;;;16.9;100.0;100560;;;;
2022/11/01 02:45:04;;;;;;;1.0;1.0;;;;;;;16.9;100.0;100560;;;;
2022/11/01 02:46:59;;;;;;;1.0;1.0;;;;;;;16.8;100.0;100570;;;;
2022/11/01 02:47:01;;;;;;;1.0;1.0;;;;;;;16.8;100.0;100570;;;;
2022/11/01 02:48:01;;;;;;;1.0;1.0;;;;;;;16.9;100.0;100580;;;;
2022/11/01 02:49:01;;;;;;;1.0;1.0;;;;;;;16.9;100.0;100580;;;;
2022/11/01 02:50:01;;;;;;;1.0;1.0;;;;;;;16.9;100.0;100570;;;;
2022/11/01 02:51:00;;;;;;;0.3;0.3;;;;;;;16.9;100.0;100570;;;;
2022/11/01 02:52:01;;;;;;;0.3;0.3;;;;;;;16.9;100.0;100570;;;;
2022/11/01 02:53:00;;;;;;;0.3;0.3;;;;;;;16.9;100.0;100570;;;;
2022/11/01 02:54:04;;;;;;;0.3;0.3;;;;;;;17.0;100.0;100580;;;;
2022/11/01 02:55:02;;;;;;;0.3;0.3;;;;;;;17.0;100.0;100580;;;;
2022/11/01 02:56:00;;;;;;;0.3;0.3;;;;;;;16.9;100.0;100570;;;;
2022/11/01 02:57:04;;;;;;;0.3;0.3;;;;;;;16.9;100.0;100570;;;;
2022/11/01 02:58:05;;;;;;;0.3;0.3;;;;;;;16.9;100.0;100570;;;;
2022/11/01 02:59:00;;;;;;;0.3;0.3;;;;;;;16.9;100.0;100570;;;;
2022/11/01 03:00:10;;;;;;;0.3;0.3;;;;;;;16.8;100.0;100570;;;;
2022/11/01 03:01:00;;;;;;;0.3;0.3;;;;;;;16.8;100.0;100570;;;;
2022/11/01 03:02:04;;;;;;;0.3;0.3;;;;;;;16.8;100.0;100580;;;;
2022/11/01 03:03:05;;;;;;;0.3;0.3;;;;;;;16.8;100.0;100580;;;;
2022/11/01 03:04:01;;;;;;;0.3;0.3;;;;;;;16.8;100.0;100580;;;;
2022/11/01 03:05:00;;;;;;;0.3;0.3;;;;;;;16.8;100.0;100580;;;;
2022/11/01 03:06:00;;;;;;;0.3;0.3;;;;;;;16.9;100.0;100580;;;;
2022/11/01 03:07:02;;;;;;;0.3;0.3;;;;;;;16.9;100.0;100580;;;;
2022/11/01 03:08:02;;;;;;;0.3;0.3;;;;;;;17.0;100.0;100570;;;;
2022/11/01 03:09:02;;;;;;;0.3;0.3;;;;;;;17.0;100.0;100570;;;;
2022/11/01 03:10:00;;;;;;;0.3;0.3;;;;;;;17.0;100.0;100580;;;;
2022/11/01 03:11:04;;;;;;;0.7;0.7;;;;;;;17.0;100.0;100580;;;;
2022/11/01 03:12:01;;;;;;;0.7;0.7;;;;;;;17.0;100.0;100580;;;;
2022/11/01 03:13:09;;;;;;;0.7;0.7;;;;;;;17.0;100.0;100580;;;;
2022/11/01 03:14:05;;;;;;;0.7;0.7;;;;;;;17.0;100.0;100580;;;;
2022/11/01 03:15:04;;;;;;;0.7;0.7;;;;;;;17.0;100.0;100580;;;;
2022/11/01 03:16:06;;;;;;;0.7;0.7;;;;;;;16.9;100.0;100580;;;;
2022/11/01 03:17:05;;;;;;;0.7;0.7;;;;;;;16.9;100.0;100580;;;;
2022/11/01 03:18:03;;;;;;;0.7;0.7;;;;;;;17.0;100.0;100580;;;;
2022/11/01 03:19:04;;;;;;;0.7;0.7;;;;;;;17.0;100.0;100580;;;;
2022/11/01 03:20:10;;;;;;;0.7;0.7;;;;;;;17.0;100.0;100590;;;;
2022/11/01 03:21:14;;;;;;;0.7;0.7;;;;;;;17.0;100.0;100590;;;;
2022/11/01 03:22:05;;;;;;;0.7;0.7;;;;;;;17.0;100.0;100600;;;;
2022/11/01 03:23:02;;;;;;;0.7;0.7;;;;;;;17.0;100.0;100600;;;;
2022/11/01 03:24:08;;;;;;;0.7;0.7;;;;;;;17.0;100.0;100600;;;;
2022/11/01 03:25:38;;;;;;;0.7;0.7;;;;;;;17.0;100.0;100600;;;;
2022/11/01 03:26:02;;;;;;;0.7;0.7;;;;;;;17.0;100.0;100590;;;;
2022/11/01 03:27:04;;;;;;;0.7;0.7;;;;;;;17.0;100.0;100590;;;;
2022/11/01 03:28:03;;;;;;;0.7;0.7;;;;;;;16.9;100.0;100600;;;;
2022/11/01 03:29:03;;;;;;;0.7;0.7;;;;;;;16.9;100.0;100600;;;;
2022/11/01 03:30:03;;;;;;;0.7;0.7;;;;;;;16.8;100.0;100600;;;;
2022/11/01 03:31:07;;;;;;;0.3;0.3;;;;;;;16.8;100.0;100600;;;;
2022/11/01 03:32:01;;;;;;;0.3;0.3;;;;;;;16.9;100.0;100600;;;;
2022/11/01 03:33:01;;;;;;;0.3;0.3;;;;;;;16.9;100.0;100600;;;;
2022/11/01 03:34:01;;;;;;;0.3;0.3;;;;;;;16.8;100.0;100600;;;;
2022/11/01 03:35:01;;;;;;;0.3;0.3;;;;;;;16.8;100.0;100600;;;;
2022/11/01 03:36:02;;;;;;;0.3;0.3;;;;;;;16.8;100.0;100620;;;;
2022/11/01 03:37:03;;;;;;;0.3;0.3;;;;;;;16.8;100.0;100620;;;;
2022/11/01 03:38:03;;;;;;;0.3;0.3;;;;;;;16.8;100.0;100610;;;;
2022/11/01 03:39:03;;;;;;;0.3;0.3;;;;;;;16.8;100.0;100610;;;;
2022/11/01 03:40:02;;;;;;;0.3;0.3;;;;;;;16.8;100.0;100620;;;;
2022/11/01 03:41:02;;;;;;;0.3;0.3;;;;;;;16.8;100.0;100620;;;;
2022/11/01 03:42:02;;;;;;;0.3;0.3;;;;;;;16.8;100.0;100610;;;;
2022/11/01 03:43:05;;;;;;;0.3;0.3;;;;;;;16.8;100.0;100610;;;;
2022/11/01 03:44:00;;;;;;;0.3;0.3;;;;;;;16.8;100.0;100610;;;;
2022/11/01 03:45:03;;;;;;;0.3;0.3;;;;;;;16.8;100.0;100610;;;;
2022/11/01 03:46:00;;;;;;;0.3;0.3;;;;;;;16.7;100.0;100620;;;;
2022/11/01 03:47:00;;;;;;;0.3;0.3;;;;;;;16.7;100.0;100620;;;;
2022/11/01 03:48:01;;;;;;;0.3;0.3;;;;;;;16.6;100.0;100620;;;;
2022/11/01 03:49:00;;;;;;;0.3;0.3;;;;;;;16.6;100.0;100620;;;;
2022/11/01 03:50:10;;;;;;;0.3;0.3;;;;;;;16.5;100.0;100630;;;;
2022/11/01 03:51:00;;;;;;;0.3;0.3;;;;;;;16.5;100.0;100630;;;;
2022/11/01 03:52:00;;;;;;;0.3;0.3;;;;;;;16.5;100.0;100640;;;;
2022/11/01 03:53:00;;;;;;;0.3;0.3;;;;;;;16.5;100.0;100640;;;;
2022/11/01 03:54:00;;;;;;;0.3;0.3;;;;;;;16.6;100.0;100640;;;;
2022/11/01 03:55:16;;;;;;;0.3;0.3;;;;;;;16.6;100.0;100640;;;;
2022/11/01 03:56:00;;;;;;;0.3;0.3;;;;;;;16.6;100.0;100640;;;;
2022/11/01 03:57:00;;;;;;;0.3;0.3;;;;;;;16.6;100.0;100640;;;;
2022/11/01 03:58:00;;;;;;;0.3;0.3;;;;;;;16.5;100.0;100640;;;;
2022/11/01 03:59:00;;;;;;;0.3;0.3;;;;;;;16.5;100.0;100640;;;;
2022/11/01 04:00:00;;;;;;;0.3;0.3;;;;;;;16.5;100.0;100640;;;;
2022/11/01 04:01:00;;;;;;;0.3;0.3;;;;;;;16.5;100.0;100640;;;;
2022/11/01 04:02:00;;;;;;;0.3;0.3;;;;;;;16.5;100.0;100650;;;;
2022/11/01 04:03:00;;;;;;;0.3;0.3;;;;;;;16.5;100.0;100650;;;;
2022/11/01 04:04:00;;;;;;;0.3;0.3;;;;;;;16.4;100.0;100650;;;;
2022/11/01 04:05:00;;;;;;;0.3;0.3;;;;;;;16.4;100.0;100650;;;;
2022/11/01 04:06:00;;;;;;;0.3;0.3;;;;;;;16.3;100.0;100660;;;;
2022/11/01 04:07:00;;;;;;;0.3;0.3;;;;;;;16.3;100.0;100660;;;;
2022/11/01 04:08:00;;;;;;;0.3;0.3;;;;;;;16.2;100.0;100670;;;;
2022/11/01 04:09:00;;;;;;;0.3;0.3;;;;;;;16.2;100.0;100670;;;;
2022/11/01 04:10:00;;;;;;;0.3;0.3;;;;;;;16.0;100.0;100660;;;;
2022/11/01 04:11:00;;;;;;;0.4;0.4;;;;;;;16.0;100.0;100660;;;;
2022/11/01 04:12:00;;;;;;;0.4;0.4;;;;;;;16.1;100.0;100680;;;;
2022/11/01 04:13:01;;;;;;;0.4;0.4;;;;;;;16.1;100.0;100680;;;;
2022/11/01 04:21:02;;;;;;;0.4;0.4;;;;;;;15.8;100.0;100690;;;;
2022/11/01 04:22:00;;;;;;;0.4;0.4;;;;;;;15.6;100.0;100690;;;;
2022/11/01 04:23:07;;;;;;;0.4;0.4;;;;;;;15.6;100.0;100690;;;;
2022/11/01 04:24:00;;;;;;;0.4;0.4;;;;;;;15.5;100.0;100710;;;;
2022/11/01 04:25:00;;;;;;;0.4;0.4;;;;;;;15.5;100.0;100710;;;;
2022/11/01 04:26:00;;;;;;;0.4;0.4;;;;;;;15.5;100.0;100710;;;;
2022/11/01 04:27:00;;;;;;;0.4;0.4;;;;;;;15.5;100.0;100710;;;;
2022/11/01 04:28:00;;;;;;;0.4;0.4;;;;;;;15.4;100.0;100720;;;;
2022/11/01 04:29:00;;;;;;;0.4;0.4;;;;;;;15.4;100.0;100720;;;;
2022/11/01 04:30:00;;;;;;;0.4;0.4;;;;;;;15.4;100.0;100720;;;;
2022/11/01 04:31:00;;;;;;;0.4;0.4;;;;;;;15.4;100.0;100720;;;;
2022/11/01 04:32:01;;;;;;;0.4;0.4;;;;;;;15.4;100.0;100730;;;;
2022/11/01 04:33:00;;;;;;;0.4;0.4;;;;;;;15.4;100.0;100730;;;;
2022/11/01 04:34:00;;;;;;;0.4;0.4;;;;;;;15.4;100.0;100730;;;;
2022/11/01 04:35:00;;;;;;;0.4;0.4;;;;;;;15.4;100.0;100730;;;;
2022/11/01 04:36:04;;;;;;;0.4;0.4;;;;;;;15.3;100.0;100740;;;;
2022/11/01 04:37:00;;;;;;;0.4;0.4;;;;;;;15.3;100.0;100740;;;;
2022/11/01 04:38:01;;;;;;;0.4;0.4;;;;;;;15.3;100.0;100740;;;;
2022/11/01 04:39:00;;;;;;;0.4;0.4;;;;;;;15.3;100.0;100740;;;;
2022/11/01 04:40:00;;;;;;;0.4;0.4;;;;;;;15.2;100.0;100740;;;;
2022/11/01 04:41:00;;;;;;;0.4;0.4;;;;;;;15.2;100.0;100740;;;;
2022/11/01 04:42:00;;;;;;;0.4;0.4;;;;;;;15.2;100.0;100750;;;;
2022/11/01 04:43:00;;;;;;;0.4;0.4;;;;;;;15.2;100.0;100750;;;;
2022/11/01 04:44:00;;;;;;;0.4;0.4;;;;;;;15.0;100.0;100740;;;;
2022/11/01 04:45:00;;;;;;;0.4;0.4;;;;;;;15.0;100.0;100740;;;;
2022/11/01 04:46:00;;;;;;;0.4;0.4;;;;;;;15.0;100.0;100760;;;;
2022/11/01 04:47:00;;;;;;;0.4;0.4;;;;;;;15.0;100.0;100760;;;;
2022/11/01 04:48:05;;;;;;;0.4;0.4;;;;;;;15.0;100.0;100750;;;;
2022/11/01 04:49:00;;;;;;;0.4;0.4;;;;;;;15.0;100.0;100750;;;;
2022/11/01 04:50:00;;;;;;;0.4;0.4;;;;;;;15.0;100.0;100760;;;;
2022/11/01 04:51:01;;;;;;;0.4;0.4;;;;;;;15.0;100.0;100760;;;;
2022/11/01 04:52:00;;;;;;;0.4;0.4;;;;;;;14.9;100.0;100770;;;;
2022/11/01 04:53:00;;;;;;;0.4;0.4;;;;;;;14.9;100.0;100770;;;;
2022/11/01 04:54:00;;;;;;;0.4;0.4;;;;;;;14.9;100.0;100770;;;;
2022/11/01 04:55:00;;;;;;;0.4;0.4;;;;;;;14.9;100.0;100770;;;;
2022/11/01 04:56:01;;;;;;;0.4;0.4;;;;;;;14.9;100.0;100780;;;;
2022/11/01 04:57:00;;;;;;;0.4;0.4;;;;;;;14.9;100.0;100780;;;;
2022/11/01 04:58:00;;;;;;;0.4;0.4;;;;;;;14.7;100.0;100790;;;;
2022/11/01 04:59:00;;;;;;;0.4;0.4;;;;;;;14.7;100.0;100790;;;;
2022/11/01 05:00:00;;;;;;;0.4;0.4;;;;;;;14.6;100.0;100800;;;;
2022/11/01 05:01:05;;;;;;;0.4;0.4;;;;;;;14.6;100.0;100800;;;;
2022/11/01 05:02:00;;;;;;;0.4;0.4;;;;;;;14.6;100.0;100800;;;;
2022/11/01 05:03:01;;;;;;;0.4;0.4;;;;;;;14.6;100.0;100800;;;;
2022/11/01 05:04:00;;;;;;;0.4;0.4;;;;;;;14.6;100.0;100810;;;;
2022/11/01 05:05:00;;;;;;;0.4;0.4;;;;;;;14.6;100.0;100810;;;;
2022/11/01 05:06:00;;;;;;;0.4;0.4;;;;;;;14.8;100.0;100810;;;;
2022/11/01 05:07:00;;;;;;;0.4;0.4;;;;;;;14.8;100.0;100810;;;;
2022/11/01 05:08:00;;;;;;;0.4;0.4;;;;;;;14.7;100.0;100830;;;;
2022/11/01 05:09:00;;;;;;;0.4;0.4;;;;;;;14.7;100.0;100830;;;;
2022/11/01 05:10:00;;;;;;;0.4;0.4;;;;;;;14.6;100.0;100830;;;;
2022/11/01 05:11:00;;;;;;;0.5;0.5;;;;;;;14.6;100.0;100830;;;;
2022/11/01 05:12:00;;;;;;;0.5;0.5;;;;;;;14.6;100.0;100840;;;;
2022/11/01 05:13:01;;;;;;;0.5;0.5;;;;;;;14.6;100.0;100840;;;;
2022/11/01 05:14:00;;;;;;;0.5;0.5;;;;;;;14.5;100.0;100850;;;;
2022/11/01 05:15:00;;;;;;;0.5;0.5;;;;;;;14.5;100.0;100850;;;;
2022/11/01 05:16:11;;;;;;;0.5;0.5;;;;;;;14.5;100.0;100850;;;;
2022/11/01 05:17:00;;;;;;;0.5;0.5;;;;;;;14.5;100.0;100850;;;;
2022/11/01 05:18:00;;;;;;;0.5;0.5;;;;;;;14.5;100.0;100850;;;;
2022/11/01 05:19:00;;;;;;;0.5;0.5;;;;;;;14.5;100.0;100850;;;;
2022/11/01 05:20:00;;;;;;;0.5;0.5;;;;;;;14.4;100.0;100860;;;;
2022/11/01 05:21:00;;;;;;;0.5;0.5;;;;;;;14.4;100.0;100860;;;;
2022/11/01 05:22:00;;;;;;;0.5;0.5;;;;;;;14.3;100.0;100860;;;;
2022/11/01 05:23:01;;;;;;;0.5;0.5;;;;;;;14.3;100.0;100860;;;;
2022/11/01 05:24:00;;;;;;;0.5;0.5;;;;;;;14.2;100.0;100860;;;;
2022/11/01 05:25:00;;;;;;;0.5;0.5;;;;;;;14.2;100.0;100860;;;;
2022/11/01 05:26:00;;;;;;;0.5;0.5;;;;;;;14.2;100.0;100860;;;;
2022/11/01 05:27:00;;;;;;;0.5;0.5;;;;;;;14.2;100.0;100860;;;;
2022/11/01 05:28:03;;;;;;;0.5;0.5;;;;;;;14.2;100.0;100860;;;;
2022/11/01 05:29:10;;;;;;;0.5;0.5;;;;;;;14.2;100.0;100860;;;;
2022/11/01 05:30:00;;;;;;;0.5;0.5;;;;;;;14.3;100.0;100870;;;;
2022/11/01 05:31:00;;;;;;;0.4;0.4;;;;;;;14.3;100.0;100870;;;;
2022/11/01 05:32:00;;;;;;;0.4;0.4;;;;;;;14.2;100.0;100870;;;;
2022/11/01 05:33:00;;;;;;;0.4;0.4;;;;;;;14.2;100.0;100870;;;;
2022/11/01 05:34:00;;;;;;;0.4;0.4;;;;;;;14.2;100.0;100870;;;;
2022/11/01 05:35:00;;;;;;;0.4;0.4;;;;;;;14.2;100.0;100870;;;;
2022/11/01 05:36:00;;;;;;;0.4;0.4;;;;;;;14.2;100.0;100870;;;;
2022/11/01 05:37:00;;;;;;;0.4;0.4;;;;;;;14.2;100.0;100870;;;;
2022/11/01 05:38:01;;;;;;;0.4;0.4;;;;;;;14.2;100.0;100870;;;;
2022/11/01 05:39:00;;;;;;;0.4;0.4;;;;;;;14.2;100.0;100870;;;;
2022/11/01 05:40:00;;;;;;;0.4;0.4;;;;;;;14.1;100.0;100880;;;;
2022/11/01 05:41:00;;;;;;;0.4;0.4;;;;;;;14.1;100.0;100880;;;;
2022/11/01 05:42:03;;;;;;;0.4;0.4;;;;;;;14.1;100.0;100880;;;;
2022/11/01 05:43:00;;;;;;;0.4;0.4;;;;;;;14.1;100.0;100880;;;;
2022/11/01 05:44:00;;;;;;;0.4;0.4;;;;;;;14.2;100.0;100880;;;;
2022/11/01 05:45:00;;;;;;;0.4;0.4;;;;;;;14.2;100.0;100880;;;;
2022/11/01 05:46:03;;;;;;;0.4;0.4;;;;;;;14.2;100.0;100880;;;;
2022/11/01 05:47:02;;;;;;;0.4;0.4;;;;;;;14.2;100.0;100880;;;;
2022/11/01 05:48:00;;;;;;;0.4;0.4;;;;;;;14.1;100.0;100880;;;;
2022/11/01 05:49:00;;;;;;;0.4;0.4;;;;;;;14.1;100.0;100880;;;;
2022/11/01 05:50:00;;;;;;;0.5;0.5;;;;;;;14.0;100.0;100890;;;;
2022/11/01 05:51:00;;;;;;;0.5;0.5;;;;;;;14.0;100.0;100890;;;;
2022/11/01 05:52:00;;;;;;;0.5;0.5;;;;;;;14.1;100.0;100880;;;;
2022/11/01 05:53:08;;;;;;;0.5;0.5;;;;;;;14.1;100.0;100880;;;;
2022/11/01 05:54:00;;;;;;;0.5;0.5;;;;;;;14.1;100.0;100880;;;;
2022/11/01 05:55:00;;;;;;;0.5;0.5;;;;;;;14.1;100.0;100880;;;;
2022/11/01 05:56:00;;;;;;;0.5;0.5;;;;;;;14.1;100.0;100890;;;;
2022/11/01 05:57:00;;;;;;;0.5;0.5;;;;;;;14.1;100.0;100890;;;;
2022/11/01 05:58:00;;;;;;;0.5;0.5;;;;;;;14.0;100.0;100890;;;;
2022/11/01 05:59:00;;;;;;;0.5;0.5;;;;;;;14.0;100.0;100890;;;;
2022/11/01 06:00:00;;;;;;;0.5;0.5;;;;;;;14.1;100.0;100890;;;;
2022/11/01 06:01:03;;;;;;;0.5;0.5;;;;;;;14.1;100.0;100890;;;;
2022/11/01 06:02:00;;;;;;;0.5;0.5;;;;;;;14.1;100.0;100890;;;;
2022/11/01 06:03:01;;;;;;;0.5;0.5;;;;;;;14.1;100.0;100890;;;;
2022/11/01 06:04:00;;;;;;;0.5;0.5;;;;;;;14.1;100.0;100900;;;;
2022/11/01 06:05:03;;;;;;;0.5;0.5;;;;;;;14.1;100.0;100900;;;;
2022/11/01 06:06:00;;;;;;;0.5;0.5;;;;;;;14.0;100.0;100900;;;;
2022/11/01 06:07:00;;;;;;;0.5;0.5;;;;;;;14.0;100.0;100900;;;;
2022/11/01 06:08:01;;;;;;;0.5;0.5;;;;;;;14.0;100.0;100900;;;;
2022/11/01 06:09:01;;;;;;;0.5;0.5;;;;;;;14.0;100.0;100900;;;;
2022/11/01 06:10:00;;;;;;;2.4;1.9;;;;;;;14.0;100.0;100910;;;;
2022/11/01 06:11:02;;;;;;;2.4;1.9;;;;;;;14.0;100.0;100910;;;;
2022/11/01 06:12:00;;;;;;;2.4;1.9;;;;;;;13.9;100.0;100910;;;;
2022/11/01 06:13:00;;;;;;;2.4;1.9;;;;;;;13.9;100.0;100910;;;;
2022/11/01 06:14:00;;;;;;;2.4;1.9;;;;;;;13.9;100.0;100920;;;;
2022/11/01 06:15:00;;;;;;;2.4;1.9;;;;;;;13.9;100.0;100920;;;;
2022/11/01 06:16:01;;;;;;;2.4;1.9;;;;;;;13.8;100.0;100920;;;;
2022/11/01 06:17:00;;;;;;;2.4;1.9;;;;;;;13.8;100.0;100920;;;;
2022/11/01 06:18:00;;;;;;;2.4;1.9;;;;;;;13.8;100.0;100920;;;;
2022/11/01 06:19:00;;;;;;;2.4;1.9;;;;;;;13.8;100.0;100920;;;;
2022/11/01 06:20:00;;;;;;;2.4;1.9;;;;;;;13.8;100.0;100920;;;;
2022/11/01 06:21:00;;;;;;;2.4;1.9;;;;;;;13.8;100.0;100920;;;;
2022/11/01 06:22:00;;;;;;;2.4;1.9;;;;;;;13.8;100.0;100930;;;;
2022/11/01 06:23:00;;;;;;;2.4;1.9;;;;;;;13.8;100.0;100930;;;;
2022/11/01 06:24:00;;;;;;;2.4;1.9;;;;;;;13.7;100.0;100930;;;;
2022/11/01 06:25:00;;;;;;;2.4;1.9;;;;;;;13.7;100.0;100930;;;;
2022/11/01 06:26:01;;;;;;;2.4;1.9;;;;;;;13.6;100.0;100940;;;;
2022/11/01 06:27:00;;;;;;;2.4;1.9;;;;;;;13.6;100.0;100940;;;;
2022/11/01 06:28:00;;;;;;;2.4;1.9;;;;;;;13.6;100.0;100950;;;;
2022/11/01 06:29:01;;;;;;;2.4;1.9;;;;;;;13.6;100.0;100950;;;;